OTBD weather

Doha International Airport
Doha, Ad Dawhah Municipality, Qatar

Public forecast

Using degrees Celsius for public forecast. Weather courtesy of forecast.io.

METAR (pilot weather report)

Retrieved 2018/12/13 05:30 UTC (0 seconds ago):

OTBD 130530Z 30006KT 230V340 9000 NSC 22/16 Q1022 NOSIG

TAF (pilot weather forecast)

Forecast is more than 12 hours old.

Retrieved 2018/12/12 00:00 UTC (1 day ago):

TAF OTBD 122301Z 1300/1406 30006KT 9000 NSC BECMG 1306/1308 02009KT